sensor_id;sensor_type;location;lat;lon;timestamp;P1;durP1;ratioP1;P2;durP2;ratioP2
74177;SDS011;62540;48.456;-4.456;2023-04-25T00:00:25;5.00;;;4.00;;
74177;SDS011;62540;48.456;-4.456;2023-04-25T00:02:50;4.75;;;4.00;;
74177;SDS011;62540;48.456;-4.456;2023-04-25T00:05:16;4.00;;;4.00;;
74177;SDS011;62540;48.456;-4.456;2023-04-25T00:07:42;4.00;;;3.50;;
74177;SDS011;62540;48.456;-4.456;2023-04-25T00:10:08;5.75;;;4.25;;
74177;SDS011;62540;48.456;-4.456;2023-04-25T00:12:34;5.75;;;4.75;;
74177;SDS011;62540;48.456;-4.456;2023-04-25T00:15:00;3.00;;;3.00;;
74177;SDS011;62540;48.456;-4.456;2023-04-25T00:17:26;5.25;;;3.00;;
74177;SDS011;62540;48.456;-4.456;2023-04-25T00:19:51;5.00;;;4.00;;
74177;SDS011;62540;48.456;-4.456;2023-04-25T00:22:17;6.25;;;4.25;;
74177;SDS011;62540;48.456;-4.456;2023-04-25T00:24:43;4.75;;;3.75;;
74177;SDS011;62540;48.456;-4.456;2023-04-25T00:27:08;6.75;;;4.75;;
74177;SDS011;62540;48.456;-4.456;2023-04-25T00:29:33;7.00;;;6.00;;
74177;SDS011;62540;48.456;-4.456;2023-04-25T00:31:59;6.00;;;5.00;;
74177;SDS011;62540;48.456;-4.456;2023-04-25T00:34:25;4.25;;;4.25;;
74177;SDS011;62540;48.456;-4.456;2023-04-25T00:36:50;6.25;;;4.00;;
74177;SDS011;62540;48.456;-4.456;2023-04-25T00:39:18;5.75;;;5.00;;
74177;SDS011;62540;48.456;-4.456;2023-04-25T00:41:44;1.00;;;1.00;;
74177;SDS011;62540;48.456;-4.456;2023-04-25T00:44:10;6.00;;;4.00;;
74177;SDS011;62540;48.456;-4.456;2023-04-25T00:46:37;7.75;;;6.25;;
74177;SDS011;62540;48.456;-4.456;2023-04-25T00:49:03;5.50;;;5.50;;
74177;SDS011;62540;48.456;-4.456;2023-04-25T00:51:29;5.75;;;4.50;;
74177;SDS011;62540;48.456;-4.456;2023-04-25T00:53:55;6.00;;;4.50;;
74177;SDS011;62540;48.456;-4.456;2023-04-25T00:56:21;7.00;;;5.00;;
74177;SDS011;62540;48.456;-4.456;2023-04-25T00:58:47;5.00;;;4.00;;
74177;SDS011;62540;48.456;-4.456;2023-04-25T01:01:13;6.75;;;5.50;;
74177;SDS011;62540;48.456;-4.456;2023-04-25T01:03:39;7.75;;;6.00;;
74177;SDS011;62540;48.456;-4.456;2023-04-25T01:06:09;6.50;;;6.25;;
74177;SDS011;62540;48.456;-4.456;2023-04-25T01:08:35;6.25;;;5.75;;
74177;SDS011;62540;48.456;-4.456;2023-04-25T01:11:02;7.00;;;6.25;;
74177;SDS011;62540;48.456;-4.456;2023-04-25T01:13:27;5.75;;;5.25;;
74177;SDS011;62540;48.456;-4.456;2023-04-25T01:15:53;8.25;;;6.50;;
74177;SDS011;62540;48.456;-4.456;2023-04-25T01:18:19;7.50;;;6.00;;
74177;SDS011;62540;48.456;-4.456;2023-04-25T01:20:46;6.75;;;5.00;;
74177;SDS011;62540;48.456;-4.456;2023-04-25T01:23:14;5.75;;;5.75;;
74177;SDS011;62540;48.456;-4.456;2023-04-25T01:25:40;8.00;;;5.75;;
74177;SDS011;62540;48.456;-4.456;2023-04-25T01:28:05;4.00;;;4.00;;
74177;SDS011;62540;48.456;-4.456;2023-04-25T01:30:31;6.75;;;6.00;;
74177;SDS011;62540;48.456;-4.456;2023-04-25T01:32:56;5.00;;;5.00;;
74177;SDS011;62540;48.456;-4.456;2023-04-25T01:35:22;6.50;;;6.25;;
74177;SDS011;62540;48.456;-4.456;2023-04-25T01:37:49;6.75;;;6.00;;
74177;SDS011;62540;48.456;-4.456;2023-04-25T01:40:15;6.25;;;6.25;;
74177;SDS011;62540;48.456;-4.456;2023-04-25T01:42:42;3.25;;;2.50;;
74177;SDS011;62540;48.456;-4.456;2023-04-25T01:45:11;4.50;;;4.25;;
74177;SDS011;62540;48.456;-4.456;2023-04-25T01:47:37;6.25;;;5.75;;
74177;SDS011;62540;48.456;-4.456;2023-04-25T01:50:05;5.75;;;5.50;;
74177;SDS011;62540;48.456;-4.456;2023-04-25T01:52:32;6.00;;;5.00;;
74177;SDS011;62540;48.456;-4.456;2023-04-25T01:54:57;7.50;;;6.00;;
74177;SDS011;62540;48.456;-4.456;2023-04-25T01:57:25;6.25;;;6.00;;
74177;SDS011;62540;48.456;-4.456;2023-04-25T01:59:51;6.00;;;5.75;;
74177;SDS011;62540;48.456;-4.456;2023-04-25T02:02:19;5.00;;;5.00;;
74177;SDS011;62540;48.456;-4.456;2023-04-25T02:04:45;4.00;;;4.00;;
74177;SDS011;62540;48.456;-4.456;2023-04-25T02:07:10;7.50;;;5.75;;
74177;SDS011;62540;48.456;-4.456;2023-04-25T02:09:36;7.25;;;5.25;;
74177;SDS011;62540;48.456;-4.456;2023-04-25T02:12:01;8.00;;;6.00;;
74177;SDS011;62540;48.456;-4.456;2023-04-25T02:14:26;4.50;;;4.50;;
74177;SDS011;62540;48.456;-4.456;2023-04-25T02:16:52;7.00;;;6.00;;
74177;SDS011;62540;48.456;-4.456;2023-04-25T02:19:17;7.25;;;5.00;;
74177;SDS011;62540;48.456;-4.456;2023-04-25T02:21:43;7.00;;;5.25;;
74177;SDS011;62540;48.456;-4.456;2023-04-25T02:24:08;7.00;;;5.25;;
74177;SDS011;62540;48.456;-4.456;2023-04-25T02:26:33;6.00;;;4.25;;
74177;SDS011;62540;48.456;-4.456;2023-04-25T02:28:59;6.00;;;5.25;;
74177;SDS011;62540;48.456;-4.456;2023-04-25T02:31:24;7.00;;;6.50;;
74177;SDS011;62540;48.456;-4.456;2023-04-25T02:33:50;6.75;;;6.25;;
74177;SDS011;62540;48.456;-4.456;2023-04-25T02:36:16;5.75;;;5.25;;
74177;SDS011;62540;48.456;-4.456;2023-04-25T02:38:41;5.00;;;5.00;;
74177;SDS011;62540;48.456;-4.456;2023-04-25T02:41:07;8.00;;;6.00;;
74177;SDS011;62540;48.456;-4.456;2023-04-25T02:43:32;5.25;;;5.25;;
74177;SDS011;62540;48.456;-4.456;2023-04-25T02:45:58;6.50;;;6.00;;
74177;SDS011;62540;48.456;-4.456;2023-04-25T02:48:23;5.25;;;4.50;;
74177;SDS011;62540;48.456;-4.456;2023-04-25T02:50:48;8.00;;;5.00;;
74177;SDS011;62540;48.456;-4.456;2023-04-25T02:53:14;7.00;;;5.00;;
74177;SDS011;62540;48.456;-4.456;2023-04-25T02:55:40;4.00;;;4.00;;
74177;SDS011;62540;48.456;-4.456;2023-04-25T02:58:05;7.50;;;6.50;;
74177;SDS011;62540;48.456;-4.456;2023-04-25T03:00:31;7.25;;;5.00;;
74177;SDS011;62540;48.456;-4.456;2023-04-25T03:02:56;4.75;;;4.75;;
74177;SDS011;62540;48.456;-4.456;2023-04-25T03:05:21;5.25;;;5.25;;
74177;SDS011;62540;48.456;-4.456;2023-04-25T03:07:47;6.00;;;5.25;;
74177;SDS011;62540;48.456;-4.456;2023-04-25T03:10:12;5.00;;;4.00;;
74177;SDS011;62540;48.456;-4.456;2023-04-25T03:12:38;6.00;;;5.00;;
74177;SDS011;62540;48.456;-4.456;2023-04-25T03:15:03;7.00;;;5.75;;
74177;SDS011;62540;48.456;-4.456;2023-04-25T03:17:29;6.00;;;5.75;;
74177;SDS011;62540;48.456;-4.456;2023-04-25T03:19:55;5.50;;;5.00;;
74177;SDS011;62540;48.456;-4.456;2023-04-25T03:22:21;7.25;;;6.00;;
74177;SDS011;62540;48.456;-4.456;2023-04-25T03:24:47;5.00;;;5.00;;
74177;SDS011;62540;48.456;-4.456;2023-04-25T03:27:12;6.00;;;5.50;;
74177;SDS011;62540;48.456;-4.456;2023-04-25T03:29:38;6.25;;;5.25;;
74177;SDS011;62540;48.456;-4.456;2023-04-25T03:32:03;6.00;;;6.00;;
74177;SDS011;62540;48.456;-4.456;2023-04-25T03:34:29;10.00;;;7.50;;
74177;SDS011;62540;48.456;-4.456;2023-04-25T03:36:54;6.25;;;5.25;;
74177;SDS011;62540;48.456;-4.456;2023-04-25T03:39:20;7.00;;;6.00;;
74177;SDS011;62540;48.456;-4.456;2023-04-25T03:41:45;5.25;;;5.25;;
74177;SDS011;62540;48.456;-4.456;2023-04-25T03:44:10;8.00;;;6.25;;
74177;SDS011;62540;48.456;-4.456;2023-04-25T03:46:36;5.00;;;5.00;;
74177;SDS011;62540;48.456;-4.456;2023-04-25T03:49:01;5.75;;;5.50;;
74177;SDS011;62540;48.456;-4.456;2023-04-25T03:51:27;8.50;;;7.00;;
74177;SDS011;62540;48.456;-4.456;2023-04-25T03:53:52;6.25;;;5.00;;
74177;SDS011;62540;48.456;-4.456;2023-04-25T03:56:17;6.00;;;6.00;;
74177;SDS011;62540;48.456;-4.456;2023-04-25T03:58:46;9.50;;;6.50;;
74177;SDS011;62540;48.456;-4.456;2023-04-25T04:01:12;3.75;;;3.75;;
74177;SDS011;62540;48.456;-4.456;2023-04-25T04:03:38;8.00;;;7.50;;
74177;SDS011;62540;48.456;-4.456;2023-04-25T04:06:03;4.25;;;4.00;;
74177;SDS011;62540;48.456;-4.456;2023-04-25T04:08:30;8.75;;;6.25;;
74177;SDS011;62540;48.456;-4.456;2023-04-25T04:10:57;7.25;;;7.00;;
74177;SDS011;62540;48.456;-4.456;2023-04-25T04:13:22;7.00;;;6.25;;
74177;SDS011;62540;48.456;-4.456;2023-04-25T04:15:48;8.25;;;6.00;;
74177;SDS011;62540;48.456;-4.456;2023-04-25T04:18:13;6.00;;;4.50;;
74177;SDS011;62540;48.456;-4.456;2023-04-25T04:20:39;4.50;;;4.50;;
74177;SDS011;62540;48.456;-4.456;2023-04-25T04:23:04;8.25;;;6.50;;
74177;SDS011;62540;48.456;-4.456;2023-04-25T04:25:30;7.00;;;5.00;;
74177;SDS011;62540;48.456;-4.456;2023-04-25T04:27:56;6.75;;;5.50;;
74177;SDS011;62540;48.456;-4.456;2023-04-25T04:30:22;5.25;;;4.75;;
74177;SDS011;62540;48.456;-4.456;2023-04-25T04:32:54;8.50;;;7.00;;
74177;SDS011;62540;48.456;-4.456;2023-04-25T04:35:20;5.00;;;5.00;;
74177;SDS011;62540;48.456;-4.456;2023-04-25T04:37:46;0.00;;;0.00;;
74177;SDS011;62540;48.456;-4.456;2023-04-25T04:40:12;6.50;;;6.00;;
74177;SDS011;62540;48.456;-4.456;2023-04-25T04:42:40;6.50;;;6.00;;
74177;SDS011;62540;48.456;-4.456;2023-04-25T04:45:06;7.00;;;5.75;;
74177;SDS011;62540;48.456;-4.456;2023-04-25T04:47:32;7.75;;;6.00;;
74177;SDS011;62540;48.456;-4.456;2023-04-25T04:49:58;6.50;;;5.50;;
74177;SDS011;62540;48.456;-4.456;2023-04-25T04:52:24;6.75;;;4.00;;
74177;SDS011;62540;48.456;-4.456;2023-04-25T04:54:49;8.50;;;7.00;;
74177;SDS011;62540;48.456;-4.456;2023-04-25T04:57:15;10.50;;;9.25;;
74177;SDS011;62540;48.456;-4.456;2023-04-25T04:59:41;6.75;;;6.75;;
74177;SDS011;62540;48.456;-4.456;2023-04-25T05:02:07;7.50;;;7.25;;
74177;SDS011;62540;48.456;-4.456;2023-04-25T05:04:32;8.00;;;7.75;;
74177;SDS011;62540;48.456;-4.456;2023-04-25T05:06:58;9.00;;;8.25;;
74177;SDS011;62540;48.456;-4.456;2023-04-25T05:09:23;7.75;;;7.25;;
74177;SDS011;62540;48.456;-4.456;2023-04-25T05:11:50;9.00;;;7.00;;
74177;SDS011;62540;48.456;-4.456;2023-04-25T05:14:16;9.50;;;8.00;;
74177;SDS011;62540;48.456;-4.456;2023-04-25T05:16:42;6.50;;;6.25;;
74177;SDS011;62540;48.456;-4.456;2023-04-25T05:19:08;6.50;;;6.50;;
74177;SDS011;62540;48.456;-4.456;2023-04-25T05:21:33;7.75;;;7.50;;
74177;SDS011;62540;48.456;-4.456;2023-04-25T05:23:59;8.50;;;8.00;;
74177;SDS011;62540;48.456;-4.456;2023-04-25T05:26:25;8.00;;;7.25;;
74177;SDS011;62540;48.456;-4.456;2023-04-25T05:28:50;10.00;;;7.75;;
74177;SDS011;62540;48.456;-4.456;2023-04-25T05:31:16;8.00;;;8.00;;
74177;SDS011;62540;48.456;-4.456;2023-04-25T05:33:42;7.50;;;7.00;;
74177;SDS011;62540;48.456;-4.456;2023-04-25T05:36:07;7.00;;;6.00;;
74177;SDS011;62540;48.456;-4.456;2023-04-25T05:38:33;8.50;;;8.00;;
74177;SDS011;62540;48.456;-4.456;2023-04-25T05:40:58;9.25;;;7.00;;
74177;SDS011;62540;48.456;-4.456;2023-04-25T05:43:24;6.00;;;5.00;;
74177;SDS011;62540;48.456;-4.456;2023-04-25T05:45:49;7.00;;;6.75;;
74177;SDS011;62540;48.456;-4.456;2023-04-25T05:48:15;9.00;;;7.75;;
74177;SDS011;62540;48.456;-4.456;2023-04-25T05:50:40;8.00;;;7.00;;
74177;SDS011;62540;48.456;-4.456;2023-04-25T05:53:06;8.00;;;7.00;;
74177;SDS011;62540;48.456;-4.456;2023-04-25T05:55:31;7.50;;;7.00;;
74177;SDS011;62540;48.456;-4.456;2023-04-25T05:57:57;8.50;;;7.00;;
74177;SDS011;62540;48.456;-4.456;2023-04-25T06:00:22;6.00;;;5.25;;
74177;SDS011;62540;48.456;-4.456;2023-04-25T06:02:48;6.25;;;4.00;;
74177;SDS011;62540;48.456;-4.456;2023-04-25T06:05:14;6.75;;;6.75;;
74177;SDS011;62540;48.456;-4.456;2023-04-25T06:07:39;7.25;;;7.25;;
74177;SDS011;62540;48.456;-4.456;2023-04-25T06:10:05;9.75;;;8.75;;
74177;SDS011;62540;48.456;-4.456;2023-04-25T06:12:32;10.00;;;10.00;;
74177;SDS011;62540;48.456;-4.456;2023-04-25T06:14:58;10.75;;;8.00;;
74177;SDS011;62540;48.456;-4.456;2023-04-25T06:17:23;10.75;;;9.75;;
74177;SDS011;62540;48.456;-4.456;2023-04-25T06:19:49;9.75;;;8.25;;
74177;SDS011;62540;48.456;-4.456;2023-04-25T06:22:14;9.25;;;8.00;;
74177;SDS011;62540;48.456;-4.456;2023-04-25T06:24:40;9.25;;;9.00;;
74177;SDS011;62540;48.456;-4.456;2023-04-25T06:27:05;10.00;;;9.25;;
74177;SDS011;62540;48.456;-4.456;2023-04-25T06:29:30;10.50;;;9.25;;
74177;SDS011;62540;48.456;-4.456;2023-04-25T06:31:56;9.00;;;8.00;;
74177;SDS011;62540;48.456;-4.456;2023-04-25T06:34:22;9.25;;;9.25;;
74177;SDS011;62540;48.456;-4.456;2023-04-25T06:36:47;17.50;;;14.75;;
74177;SDS011;62540;48.456;-4.456;2023-04-25T06:39:13;12.00;;;10.00;;
74177;SDS011;62540;48.456;-4.456;2023-04-25T06:41:38;12.75;;;10.75;;
74177;SDS011;62540;48.456;-4.456;2023-04-25T06:44:04;12.50;;;11.50;;
74177;SDS011;62540;48.456;-4.456;2023-04-25T06:46:29;16.00;;;15.25;;
74177;SDS011;62540;48.456;-4.456;2023-04-25T06:48:54;14.25;;;12.75;;
74177;SDS011;62540;48.456;-4.456;2023-04-25T06:51:20;10.25;;;10.00;;
74177;SDS011;62540;48.456;-4.456;2023-04-25T06:53:46;8.50;;;8.25;;
74177;SDS011;62540;48.456;-4.456;2023-04-25T06:56:11;9.00;;;9.00;;
74177;SDS011;62540;48.456;-4.456;2023-04-25T06:58:36;9.50;;;8.25;;
74177;SDS011;62540;48.456;-4.456;2023-04-25T07:01:02;7.00;;;6.75;;
74177;SDS011;62540;48.456;-4.456;2023-04-25T07:03:27;6.00;;;5.00;;
74177;SDS011;62540;48.456;-4.456;2023-04-25T07:05:53;10.00;;;8.25;;
74177;SDS011;62540;48.456;-4.456;2023-04-25T07:08:18;9.00;;;9.00;;
74177;SDS011;62540;48.456;-4.456;2023-04-25T07:10:44;9.00;;;8.00;;
74177;SDS011;62540;48.456;-4.456;2023-04-25T07:13:11;8.00;;;7.00;;
74177;SDS011;62540;48.456;-4.456;2023-04-25T07:15:36;11.50;;;9.50;;
74177;SDS011;62540;48.456;-4.456;2023-04-25T07:18:02;10.00;;;9.00;;
74177;SDS011;62540;48.456;-4.456;2023-04-25T07:20:27;11.00;;;9.50;;
74177;SDS011;62540;48.456;-4.456;2023-04-25T07:22:52;9.50;;;8.75;;
74177;SDS011;62540;48.456;-4.456;2023-04-25T07:25:18;9.50;;;8.50;;
74177;SDS011;62540;48.456;-4.456;2023-04-25T07:27:44;12.25;;;9.25;;
74177;SDS011;62540;48.456;-4.456;2023-04-25T07:30:09;9.25;;;9.00;;
74177;SDS011;62540;48.456;-4.456;2023-04-25T07:32:35;8.75;;;8.75;;
74177;SDS011;62540;48.456;-4.456;2023-04-25T07:35:00;8.00;;;8.00;;
74177;SDS011;62540;48.456;-4.456;2023-04-25T07:37:26;10.25;;;9.25;;
74177;SDS011;62540;48.456;-4.456;2023-04-25T07:39:52;7.75;;;6.00;;
74177;SDS011;62540;48.456;-4.456;2023-04-25T07:42:17;6.75;;;6.75;;
74177;SDS011;62540;48.456;-4.456;2023-04-25T07:44:43;13.25;;;10.25;;
74177;SDS011;62540;48.456;-4.456;2023-04-25T07:47:09;12.00;;;10.25;;
74177;SDS011;62540;48.456;-4.456;2023-04-25T07:49:35;8.00;;;8.00;;
74177;SDS011;62540;48.456;-4.456;2023-04-25T07:52:04;8.75;;;7.75;;
74177;SDS011;62540;48.456;-4.456;2023-04-25T07:54:31;10.50;;;10.00;;
74177;SDS011;62540;48.456;-4.456;2023-04-25T07:56:57;10.00;;;9.50;;
74177;SDS011;62540;48.456;-4.456;2023-04-25T07:59:23;7.25;;;7.00;;
74177;SDS011;62540;48.456;-4.456;2023-04-25T08:01:48;15.00;;;10.75;;
74177;SDS011;62540;48.456;-4.456;2023-04-25T08:04:14;11.00;;;9.50;;
74177;SDS011;62540;48.456;-4.456;2023-04-25T08:06:39;10.25;;;9.00;;
74177;SDS011;62540;48.456;-4.456;2023-04-25T08:09:05;8.75;;;8.75;;
74177;SDS011;62540;48.456;-4.456;2023-04-25T08:11:31;8.00;;;7.00;;
74177;SDS011;62540;48.456;-4.456;2023-04-25T08:13:56;10.00;;;8.50;;
74177;SDS011;62540;48.456;-4.456;2023-04-25T08:16:23;9.00;;;6.50;;
74177;SDS011;62540;48.456;-4.456;2023-04-25T08:18:49;9.25;;;8.25;;
74177;SDS011;62540;48.456;-4.456;2023-04-25T08:21:15;10.50;;;9.75;;
74177;SDS011;62540;48.456;-4.456;2023-04-25T08:23:41;9.75;;;9.00;;
74177;SDS011;62540;48.456;-4.456;2023-04-25T08:26:06;11.50;;;10.50;;
74177;SDS011;62540;48.456;-4.456;2023-04-25T08:28:32;8.50;;;7.75;;
74177;SDS011;62540;48.456;-4.456;2023-04-25T08:30:57;6.25;;;6.25;;
74177;SDS011;62540;48.456;-4.456;2023-04-25T08:33:23;10.75;;;9.00;;
74177;SDS011;62540;48.456;-4.456;2023-04-25T08:35:48;10.50;;;9.25;;
74177;SDS011;62540;48.456;-4.456;2023-04-25T08:38:14;11.50;;;10.25;;
74177;SDS011;62540;48.456;-4.456;2023-04-25T08:40:39;9.00;;;9.00;;
74177;SDS011;62540;48.456;-4.456;2023-04-25T08:43:07;9.50;;;9.00;;
74177;SDS011;62540;48.456;-4.456;2023-04-25T08:45:38;10.75;;;9.50;;
74177;SDS011;62540;48.456;-4.456;2023-04-25T08:48:11;9.75;;;8.25;;
74177;SDS011;62540;48.456;-4.456;2023-04-25T08:53:25;8.75;;;8.00;;
74177;SDS011;62540;48.456;-4.456;2023-04-25T08:55:56;8.00;;;7.00;;
74177;SDS011;62540;48.456;-4.456;2023-04-25T08:58:23;8.75;;;8.75;;
74177;SDS011;62540;48.456;-4.456;2023-04-25T09:00:49;7.75;;;6.50;;
74177;SDS011;62540;48.456;-4.456;2023-04-25T09:03:16;8.25;;;6.50;;
74177;SDS011;62540;48.456;-4.456;2023-04-25T09:05:44;7.50;;;7.25;;
74177;SDS011;62540;48.456;-4.456;2023-04-25T09:08:10;9.00;;;6.00;;
74177;SDS011;62540;48.456;-4.456;2023-04-25T09:10:36;4.00;;;3.75;;
74177;SDS011;62540;48.456;-4.456;2023-04-25T09:13:06;7.50;;;7.50;;
74177;SDS011;62540;48.456;-4.456;2023-04-25T09:15:33;7.00;;;5.75;;
74177;SDS011;62540;48.456;-4.456;2023-04-25T09:18:12;7.00;;;5.25;;
74177;SDS011;62540;48.456;-4.456;2023-04-25T09:20:43;6.50;;;6.00;;
74177;SDS011;62540;48.456;-4.456;2023-04-25T09:23:09;5.25;;;5.25;;
74177;SDS011;62540;48.456;-4.456;2023-04-25T09:25:35;4.50;;;4.00;;
74177;SDS011;62540;48.456;-4.456;2023-04-25T09:28:04;4.50;;;4.50;;
74177;SDS011;62540;48.456;-4.456;2023-04-25T09:30:31;7.00;;;5.25;;
74177;SDS011;62540;48.456;-4.456;2023-04-25T09:33:07;7.00;;;5.25;;
74177;SDS011;62540;48.456;-4.456;2023-04-25T09:35:37;8.00;;;7.00;;
74177;SDS011;62540;48.456;-4.456;2023-04-25T09:38:11;8.50;;;7.75;;
74177;SDS011;62540;48.456;-4.456;2023-04-25T09:40:42;7.00;;;4.75;;
74177;SDS011;62540;48.456;-4.456;2023-04-25T09:43:29;10.50;;;8.00;;
74177;SDS011;62540;48.456;-4.456;2023-04-25T09:45:54;9.75;;;7.75;;
74177;SDS011;62540;48.456;-4.456;2023-04-25T09:48:24;7.75;;;4.75;;
74177;SDS011;62540;48.456;-4.456;2023-04-25T09:53:28;5.75;;;5.50;;
74177;SDS011;62540;48.456;-4.456;2023-04-25T09:55:53;6.75;;;6.00;;
74177;SDS011;62540;48.456;-4.456;2023-04-25T09:58:21;4.50;;;3.75;;
74177;SDS011;62540;48.456;-4.456;2023-04-25T10:00:49;5.25;;;5.25;;
74177;SDS011;62540;48.456;-4.456;2023-04-25T10:03:15;4.75;;;4.00;;
74177;SDS011;62540;48.456;-4.456;2023-04-25T10:05:43;4.00;;;4.00;;
74177;SDS011;62540;48.456;-4.456;2023-04-25T10:08:10;8.75;;;5.00;;
74177;SDS011;62540;48.456;-4.456;2023-04-25T10:10:37;7.00;;;4.00;;
74177;SDS011;62540;48.456;-4.456;2023-04-25T10:13:05;3.00;;;3.00;;
74177;SDS011;62540;48.456;-4.456;2023-04-25T10:15:34;7.00;;;7.00;;
74177;SDS011;62540;48.456;-4.456;2023-04-25T10:18:03;6.25;;;6.25;;
74177;SDS011;62540;48.456;-4.456;2023-04-25T10:20:31;5.25;;;5.00;;
74177;SDS011;62540;48.456;-4.456;2023-04-25T10:22:58;2.50;;;2.00;;
74177;SDS011;62540;48.456;-4.456;2023-04-25T10:25:47;5.50;;;5.00;;
74177;SDS011;62540;48.456;-4.456;2023-04-25T10:28:13;5.00;;;5.00;;
74177;SDS011;62540;48.456;-4.456;2023-04-25T10:30:56;5.00;;;4.00;;
74177;SDS011;62540;48.456;-4.456;2023-04-25T10:33:30;5.50;;;4.25;;
74177;SDS011;62540;48.456;-4.456;2023-04-25T10:36:11;2.75;;;2.50;;
74177;SDS011;62540;48.456;-4.456;2023-04-25T10:38:38;4.50;;;4.50;;
74177;SDS011;62540;48.456;-4.456;2023-04-25T10:41:04;2.00;;;2.00;;
74177;SDS011;62540;48.456;-4.456;2023-04-25T10:43:34;5.25;;;4.50;;
74177;SDS011;62540;48.456;-4.456;2023-04-25T10:46:12;4.75;;;3.25;;
74177;SDS011;62540;48.456;-4.456;2023-04-25T10:51:19;4.50;;;4.00;;
74177;SDS011;62540;48.456;-4.456;2023-04-25T11:01:35;4.75;;;4.75;;
74177;SDS011;62540;48.456;-4.456;2023-04-25T11:04:01;3.50;;;3.50;;
74177;SDS011;62540;48.456;-4.456;2023-04-25T11:06:29;4.25;;;4.25;;
74177;SDS011;62540;48.456;-4.456;2023-04-25T11:09:02;6.25;;;5.50;;
74177;SDS011;62540;48.456;-4.456;2023-04-25T11:11:36;3.00;;;2.75;;
74177;SDS011;62540;48.456;-4.456;2023-04-25T11:14:01;4.75;;;4.00;;
74177;SDS011;62540;48.456;-4.456;2023-04-25T11:16:27;4.00;;;3.00;;
74177;SDS011;62540;48.456;-4.456;2023-04-25T11:18:56;4.50;;;4.50;;
74177;SDS011;62540;48.456;-4.456;2023-04-25T11:21:22;5.25;;;5.00;;
74177;SDS011;62540;48.456;-4.456;2023-04-25T11:23:47;6.50;;;6.00;;
74177;SDS011;62540;48.456;-4.456;2023-04-25T11:26:13;6.50;;;4.75;;
74177;SDS011;62540;48.456;-4.456;2023-04-25T11:28:39;6.25;;;5.00;;
74177;SDS011;62540;48.456;-4.456;2023-04-25T11:31:04;6.25;;;4.75;;
74177;SDS011;62540;48.456;-4.456;2023-04-25T11:33:30;4.50;;;3.50;;
74177;SDS011;62540;48.456;-4.456;2023-04-25T11:35:55;5.75;;;5.50;;
74177;SDS011;62540;48.456;-4.456;2023-04-25T11:38:22;4.50;;;4.50;;
74177;SDS011;62540;48.456;-4.456;2023-04-25T11:40:51;6.50;;;5.50;;
74177;SDS011;62540;48.456;-4.456;2023-04-25T11:43:17;5.00;;;5.00;;
74177;SDS011;62540;48.456;-4.456;2023-04-25T11:45:48;6.75;;;5.25;;
74177;SDS011;62540;48.456;-4.456;2023-04-25T11:48:15;6.25;;;5.00;;
74177;SDS011;62540;48.456;-4.456;2023-04-25T11:50:41;6.00;;;5.00;;
74177;SDS011;62540;48.456;-4.456;2023-04-25T11:53:07;6.75;;;4.00;;
74177;SDS011;62540;48.456;-4.456;2023-04-25T11:55:33;4.00;;;4.00;;
74177;SDS011;62540;48.456;-4.456;2023-04-25T11:57:59;4.00;;;4.00;;
74177;SDS011;62540;48.456;-4.456;2023-04-25T12:00:25;7.50;;;6.25;;
74177;SDS011;62540;48.456;-4.456;2023-04-25T12:02:52;6.25;;;6.00;;
74177;SDS011;62540;48.456;-4.456;2023-04-25T12:05:18;4.25;;;4.25;;
74177;SDS011;62540;48.456;-4.456;2023-04-25T12:07:45;6.50;;;5.25;;
74177;SDS011;62540;48.456;-4.456;2023-04-25T12:10:12;3.00;;;3.00;;
74177;SDS011;62540;48.456;-4.456;2023-04-25T12:12:41;6.00;;;5.25;;
74177;SDS011;62540;48.456;-4.456;2023-04-25T12:15:08;5.00;;;5.00;;
74177;SDS011;62540;48.456;-4.456;2023-04-25T12:17:36;5.00;;;4.75;;
74177;SDS011;62540;48.456;-4.456;2023-04-25T12:20:09;4.50;;;4.50;;
74177;SDS011;62540;48.456;-4.456;2023-04-25T12:22:37;4.00;;;4.00;;
74177;SDS011;62540;48.456;-4.456;2023-04-25T12:25:05;4.25;;;4.25;;
74177;SDS011;62540;48.456;-4.456;2023-04-25T12:27:32;4.00;;;4.00;;
74177;SDS011;62540;48.456;-4.456;2023-04-25T12:29:58;5.00;;;5.00;;
74177;SDS011;62540;48.456;-4.456;2023-04-25T12:32:24;5.00;;;4.00;;
74177;SDS011;62540;48.456;-4.456;2023-04-25T12:34:50;6.25;;;5.00;;
74177;SDS011;62540;48.456;-4.456;2023-04-25T12:37:15;5.00;;;4.00;;
74177;SDS011;62540;48.456;-4.456;2023-04-25T12:39:41;4.75;;;4.75;;
74177;SDS011;62540;48.456;-4.456;2023-04-25T12:42:06;3.25;;;3.25;;
74177;SDS011;62540;48.456;-4.456;2023-04-25T12:44:38;4.00;;;4.00;;
74177;SDS011;62540;48.456;-4.456;2023-04-25T12:47:03;4.75;;;4.00;;
74177;SDS011;62540;48.456;-4.456;2023-04-25T12:49:30;3.75;;;3.25;;
74177;SDS011;62540;48.456;-4.456;2023-04-25T12:51:55;5.00;;;5.00;;
74177;SDS011;62540;48.456;-4.456;2023-04-25T12:54:21;4.50;;;4.50;;
74177;SDS011;62540;48.456;-4.456;2023-04-25T12:56:46;4.00;;;4.00;;
74177;SDS011;62540;48.456;-4.456;2023-04-25T12:59:12;4.00;;;4.00;;
74177;SDS011;62540;48.456;-4.456;2023-04-25T13:01:37;5.25;;;5.25;;
74177;SDS011;62540;48.456;-4.456;2023-04-25T13:04:03;5.00;;;5.00;;
74177;SDS011;62540;48.456;-4.456;2023-04-25T13:06:28;6.25;;;5.25;;
74177;SDS011;62540;48.456;-4.456;2023-04-25T13:08:55;5.00;;;4.00;;
74177;SDS011;62540;48.456;-4.456;2023-04-25T13:11:21;7.00;;;6.25;;
74177;SDS011;62540;48.456;-4.456;2023-04-25T13:13:46;4.75;;;4.50;;
74177;SDS011;62540;48.456;-4.456;2023-04-25T13:16:12;4.00;;;4.00;;
74177;SDS011;62540;48.456;-4.456;2023-04-25T13:18:39;4.00;;;4.00;;
74177;SDS011;62540;48.456;-4.456;2023-04-25T13:21:04;4.25;;;4.25;;
74177;SDS011;62540;48.456;-4.456;2023-04-25T13:23:30;4.00;;;4.00;;
74177;SDS011;62540;48.456;-4.456;2023-04-25T13:25:56;5.25;;;5.00;;
74177;SDS011;62540;48.456;-4.456;2023-04-25T13:28:26;5.00;;;4.25;;
74177;SDS011;62540;48.456;-4.456;2023-04-25T13:30:52;5.50;;;4.25;;
74177;SDS011;62540;48.456;-4.456;2023-04-25T13:33:18;5.75;;;4.50;;
74177;SDS011;62540;48.456;-4.456;2023-04-25T13:35:44;5.50;;;4.75;;
74177;SDS011;62540;48.456;-4.456;2023-04-25T13:38:12;6.00;;;4.00;;
74177;SDS011;62540;48.456;-4.456;2023-04-25T13:40:38;7.00;;;5.00;;
74177;SDS011;62540;48.456;-4.456;2023-04-25T13:43:03;5.00;;;4.50;;
74177;SDS011;62540;48.456;-4.456;2023-04-25T13:45:29;3.75;;;3.75;;
74177;SDS011;62540;48.456;-4.456;2023-04-25T13:47:54;3.00;;;3.00;;
74177;SDS011;62540;48.456;-4.456;2023-04-25T13:50:20;3.00;;;1.75;;
74177;SDS011;62540;48.456;-4.456;2023-04-25T13:52:46;5.00;;;4.00;;
74177;SDS011;62540;48.456;-4.456;2023-04-25T13:55:11;5.75;;;4.00;;
74177;SDS011;62540;48.456;-4.456;2023-04-25T13:57:37;6.25;;;4.75;;
74177;SDS011;62540;48.456;-4.456;2023-04-25T14:00:03;5.00;;;3.50;;
74177;SDS011;62540;48.456;-4.456;2023-04-25T14:02:37;5.25;;;4.50;;
74177;SDS011;62540;48.456;-4.456;2023-04-25T14:05:03;7.25;;;5.25;;
74177;SDS011;62540;48.456;-4.456;2023-04-25T14:07:29;3.75;;;3.50;;
74177;SDS011;62540;48.456;-4.456;2023-04-25T14:09:55;5.00;;;4.00;;
74177;SDS011;62540;48.456;-4.456;2023-04-25T14:12:22;8.00;;;7.00;;
74177;SDS011;62540;48.456;-4.456;2023-04-25T14:14:48;6.25;;;6.25;;
74177;SDS011;62540;48.456;-4.456;2023-04-25T14:17:13;5.75;;;4.50;;
74177;SDS011;62540;48.456;-4.456;2023-04-25T14:19:39;5.00;;;4.75;;
74177;SDS011;62540;48.456;-4.456;2023-04-25T14:22:08;6.25;;;4.00;;
74177;SDS011;62540;48.456;-4.456;2023-04-25T14:24:33;4.25;;;4.00;;
74177;SDS011;62540;48.456;-4.456;2023-04-25T14:26:59;4.25;;;3.75;;
74177;SDS011;62540;48.456;-4.456;2023-04-25T14:29:25;8.00;;;7.00;;
74177;SDS011;62540;48.456;-4.456;2023-04-25T14:31:51;6.50;;;5.25;;
74177;SDS011;62540;48.456;-4.456;2023-04-25T14:34:17;9.50;;;7.25;;
74177;SDS011;62540;48.456;-4.456;2023-04-25T14:36:42;3.00;;;3.00;;
74177;SDS011;62540;48.456;-4.456;2023-04-25T14:39:08;9.00;;;7.75;;
74177;SDS011;62540;48.456;-4.456;2023-04-25T14:41:33;7.25;;;7.25;;
74177;SDS011;62540;48.456;-4.456;2023-04-25T14:43:59;7.75;;;7.50;;